createdAt,value
2022-11-20T03:59:20.255Z,1005.74
2022-11-20T04:00:18.351Z,1005.78
2022-11-20T04:01:18.368Z,1005.81
2022-11-20T04:02:19.951Z,1005.85
2022-11-20T04:03:19.916Z,1005.82
2022-11-20T04:04:19.931Z,1005.85
2022-11-20T04:05:19.931Z,1005.83
2022-11-20T04:06:19.918Z,1005.82
2022-11-20T04:07:19.956Z,1005.83
2022-11-20T04:08:19.916Z,1005.84
2022-11-20T04:09:20.246Z,1005.83
2022-11-20T04:10:19.929Z,1005.85
2022-11-20T04:11:19.938Z,1005.85
2022-11-20T04:12:18.257Z,1005.87
2022-11-20T04:13:19.919Z,1005.92
2022-11-20T04:14:19.940Z,1005.87
2022-11-20T04:15:19.923Z,1005.85
2022-11-20T04:16:18.236Z,1005.82
2022-11-20T04:17:18.230Z,1005.81
2022-11-20T04:18:18.222Z,1005.78
2022-11-20T04:19:20.241Z,1005.76
2022-11-20T04:20:19.940Z,1005.75
2022-11-20T04:21:18.210Z,1005.76
2022-11-20T04:22:18.216Z,1005.78
2022-11-20T04:23:22.373Z,1005.79
2022-11-20T04:24:18.214Z,1005.81
2022-11-20T04:25:19.940Z,1005.79
2022-11-20T04:26:18.184Z,1005.71
2022-11-20T04:27:18.183Z,1005.73
2022-11-20T04:28:18.230Z,1005.70
2022-11-20T04:29:18.322Z,1005.71
2022-11-20T04:30:19.958Z,1005.71
2022-11-20T04:31:18.189Z,1005.70
2022-11-20T04:32:18.194Z,1005.68
2022-11-20T04:33:19.947Z,1005.65
2022-11-20T04:34:19.956Z,1005.67
2022-11-20T04:35:19.949Z,1005.65
2022-11-20T04:36:19.938Z,1005.65
2022-11-20T04:37:19.937Z,1005.70
2022-11-20T04:38:19.956Z,1005.67
2022-11-20T04:39:20.354Z,1005.68
2022-11-20T04:40:18.123Z,1005.70
2022-11-20T04:41:19.942Z,1005.68
2022-11-20T04:42:19.940Z,1005.64
2022-11-20T04:43:19.973Z,1005.66
2022-11-20T04:44:19.941Z,1005.67
2022-11-20T04:45:19.988Z,1005.70
2022-11-20T04:46:19.948Z,1005.72
2022-11-20T04:47:19.952Z,1005.64
2022-11-20T04:48:19.983Z,1005.66
2022-11-20T04:49:20.458Z,1005.62
2022-11-20T04:50:19.965Z,1005.62
2022-11-20T04:51:19.949Z,1005.64
2022-11-20T04:52:19.948Z,1005.64
2022-11-20T04:53:19.951Z,1005.63
2022-11-20T04:54:20.002Z,1005.62
2022-11-20T04:55:19.964Z,1005.65
2022-11-20T04:56:19.967Z,1005.63
2022-11-20T04:57:19.953Z,1005.62
2022-11-20T04:58:19.955Z,1005.60
2022-11-20T04:59:20.452Z,1005.60
2022-11-20T05:00:18.045Z,1005.59
2022-11-20T05:01:20.077Z,1005.59
2022-11-20T05:02:18.023Z,1005.56
2022-11-20T05:03:18.018Z,1005.61
2022-11-20T05:04:18.011Z,1005.61
2022-11-20T05:05:18.001Z,1005.64
2022-11-20T05:06:19.979Z,1005.63
2022-11-20T05:07:18.055Z,1005.63
2022-11-20T05:08:18.994Z,1005.63
2022-11-20T05:09:20.368Z,1005.62
2022-11-20T05:10:17.998Z,1005.65
2022-11-20T05:11:19.486Z,1005.65
2022-11-20T05:12:17.973Z,1005.67
2022-11-20T05:13:19.469Z,1005.62
2022-11-20T05:14:17.971Z,1005.68
2022-11-20T05:15:19.488Z,1005.66
2022-11-20T05:16:19.471Z,1005.65
2022-11-20T05:17:19.467Z,1005.62
2022-11-20T05:18:19.477Z,1005.66
2022-11-20T05:19:18.019Z,1005.68
2022-11-20T05:20:17.943Z,1005.67
2022-11-20T05:21:17.937Z,1005.68
2022-11-20T05:22:17.956Z,1005.66
2022-11-20T05:23:18.937Z,1005.64
2022-11-20T05:24:19.486Z,1005.67
2022-11-20T05:25:19.481Z,1005.65
2022-11-20T05:26:17.903Z,1005.64
2022-11-20T05:27:17.901Z,1005.67
2022-11-20T05:28:17.895Z,1005.67
2022-11-20T05:29:18.067Z,1005.64
2022-11-20T05:30:19.502Z,1005.64
2022-11-20T05:31:25.033Z,1005.60
2022-11-20T05:32:17.889Z,1005.58
2022-11-20T05:33:17.881Z,1005.58
2022-11-20T05:34:17.878Z,1005.59
2022-11-20T05:35:19.501Z,1005.59
2022-11-20T05:36:19.497Z,1005.60
2022-11-20T05:37:19.502Z,1005.56
2022-11-20T05:38:19.485Z,1005.55
2022-11-20T05:39:19.837Z,1005.54
2022-11-20T05:40:19.499Z,1005.51
2022-11-20T05:41:19.485Z,1005.50
2022-11-20T05:42:19.488Z,1005.49
2022-11-20T05:43:19.498Z,1005.48
2022-11-20T05:44:19.505Z,1005.48
2022-11-20T05:45:19.511Z,1005.46
2022-11-20T05:46:22.295Z,1005.45
2022-11-20T05:47:19.507Z,1005.46
2022-11-20T05:48:19.490Z,1005.44
2022-11-20T05:49:19.782Z,1005.42
2022-11-20T05:50:19.519Z,1005.39
2022-11-20T05:51:19.499Z,1005.40
2022-11-20T05:52:19.522Z,1005.37
2022-11-20T05:53:19.508Z,1005.35
2022-11-20T05:54:19.496Z,1005.38
2022-11-20T05:55:19.539Z,1005.34
2022-11-20T05:56:19.507Z,1005.32
2022-11-20T05:57:19.499Z,1005.25
2022-11-20T05:58:17.798Z,1005.29
2022-11-20T05:59:19.832Z,1005.27
2022-11-20T06:00:17.770Z,1005.32
2022-11-20T06:01:17.754Z,1005.33
2022-11-20T06:02:17.805Z,1005.32
2022-11-20T06:03:17.743Z,1005.31
2022-11-20T06:04:19.526Z,1005.32
2022-11-20T06:05:17.735Z,1005.32
2022-11-20T06:06:17.723Z,1005.34
2022-11-20T06:07:17.763Z,1005.33
2022-11-20T06:08:19.520Z,1005.30
2022-11-20T06:09:19.769Z,1005.29
2022-11-20T06:10:19.533Z,1005.30
2022-11-20T06:11:19.529Z,1005.32
2022-11-20T06:12:19.525Z,1005.33
2022-11-20T06:13:19.515Z,1005.36
2022-11-20T06:14:19.531Z,1005.36
2022-11-20T06:15:19.515Z,1005.33
2022-11-20T06:16:19.559Z,1005.33
2022-11-20T06:17:19.569Z,1005.32
2022-11-20T06:18:17.685Z,1005.33
2022-11-20T06:19:19.977Z,1005.29
2022-11-20T06:20:19.515Z,1005.32
2022-11-20T06:21:19.551Z,1005.30
2022-11-20T06:22:19.523Z,1005.33
2022-11-20T06:23:19.546Z,1005.35
2022-11-20T06:24:19.535Z,1005.35
2022-11-20T06:25:19.539Z,1005.34
2022-11-20T06:26:19.532Z,1005.32
2022-11-20T06:27:19.524Z,1005.31
2022-11-20T06:28:19.521Z,1005.25
2022-11-20T06:29:19.926Z,1005.25
2022-11-20T06:30:19.553Z,1005.21
2022-11-20T06:31:19.567Z,1005.24
2022-11-20T06:32:17.596Z,1005.24
2022-11-20T06:33:17.610Z,1005.24
2022-11-20T06:34:17.600Z,1005.23
2022-11-20T06:35:17.593Z,1005.24
2022-11-20T06:36:19.546Z,1005.27
2022-11-20T06:37:17.577Z,1005.26
2022-11-20T06:38:17.578Z,1005.22
2022-11-20T06:39:19.912Z,1005.19
2022-11-20T06:40:17.588Z,1005.12
2022-11-20T06:41:19.546Z,1005.14
2022-11-20T06:42:19.053Z,1005.11
2022-11-20T06:43:17.550Z,1005.10
2022-11-20T06:44:19.536Z,1005.08
2022-11-20T06:45:17.545Z,1005.15
2022-11-20T06:46:17.539Z,1005.19
2022-11-20T06:47:19.047Z,1005.15
2022-11-20T06:48:19.040Z,1005.14
2022-11-20T06:49:19.288Z,1005.11
2022-11-20T06:50:19.061Z,1005.12
2022-11-20T06:51:19.067Z,1005.09
2022-11-20T06:52:18.559Z,1005.09
2022-11-20T06:53:19.058Z,1005.06
2022-11-20T06:54:17.506Z,1005.03
2022-11-20T06:55:17.502Z,1005.06
2022-11-20T06:56:17.493Z,1005.03
2022-11-20T06:57:19.046Z,1005.01
2022-11-20T06:58:19.063Z,1005.04
2022-11-20T06:59:17.486Z,1005.05
2022-11-20T07:00:17.500Z,1005.08
2022-11-20T07:01:19.095Z,1005.08
2022-11-20T07:02:17.474Z,1005.13
2022-11-20T07:03:17.457Z,1005.12
2022-11-20T07:04:17.467Z,1005.09
2022-11-20T07:05:17.453Z,1005.11
2022-11-20T07:06:19.076Z,1005.09
2022-11-20T07:07:17.499Z,1005.08
2022-11-20T07:08:17.437Z,1005.08
2022-11-20T07:09:17.460Z,1005.07
2022-11-20T07:10:19.059Z,1005.05
2022-11-20T07:11:19.073Z,1005.03
2022-11-20T07:12:19.091Z,1005.02
2022-11-20T07:13:17.419Z,1005.00
2022-11-20T07:14:19.079Z,1005.05
2022-11-20T07:15:19.088Z,1005.09
2022-11-20T07:16:19.070Z,1005.12
2022-11-20T07:17:19.063Z,1005.15
2022-11-20T07:18:19.063Z,1005.13
2022-11-20T07:19:19.343Z,1005.19
2022-11-20T07:20:19.069Z,1005.22
2022-11-20T07:21:19.087Z,1005.23
2022-11-20T07:22:19.073Z,1005.29
2022-11-20T07:23:19.067Z,1005.29
2022-11-20T07:24:19.078Z,1005.32
2022-11-20T07:25:19.088Z,1005.28
2022-11-20T07:26:19.082Z,1005.32
2022-11-20T07:27:19.094Z,1005.34
2022-11-20T07:28:19.078Z,1005.34
2022-11-20T07:29:18.724Z,1005.37
2022-11-20T07:30:17.366Z,1005.35
2022-11-20T07:31:19.853Z,1005.37
2022-11-20T07:32:17.357Z,1005.35
2022-11-20T07:33:17.324Z,1005.33
2022-11-20T07:34:17.320Z,1005.29
2022-11-20T07:35:17.325Z,1005.32
2022-11-20T07:36:19.090Z,1005.33
2022-11-20T07:37:17.311Z,1005.37
2022-11-20T07:38:17.339Z,1005.40
2022-11-20T07:39:19.327Z,1005.41
2022-11-20T07:40:17.347Z,1005.47
2022-11-20T07:41:17.291Z,1005.54
2022-11-20T07:42:18.606Z,1005.55
2022-11-20T07:43:19.089Z,1005.59
2022-11-20T07:44:18.289Z,1005.60
2022-11-20T07:45:17.315Z,1005.56
2022-11-20T07:46:19.100Z,1005.52
2022-11-20T07:47:19.081Z,1005.47
2022-11-20T07:48:19.100Z,1005.44
2022-11-20T07:49:19.314Z,1005.49
2022-11-20T07:50:19.091Z,1005.48
2022-11-20T07:51:19.090Z,1005.46
2022-11-20T07:52:19.090Z,1005.42
2022-11-20T07:53:17.251Z,1005.41
2022-11-20T07:54:19.112Z,1005.39
2022-11-20T07:55:19.106Z,1005.39
2022-11-20T07:56:19.093Z,1005.42
2022-11-20T07:57:19.442Z,1005.44
2022-11-20T07:58:19.094Z,1005.46
2022-11-20T07:59:19.250Z,1005.48
2022-11-20T08:00:19.128Z,1005.47
2022-11-20T08:01:19.234Z,1005.45
2022-11-20T08:02:19.100Z,1005.44
2022-11-20T08:03:24.287Z,1005.47
2022-11-20T08:04:18.236Z,1005.47
2022-11-20T08:05:17.213Z,1005.47
2022-11-20T08:06:17.185Z,1005.46
2022-11-20T08:07:19.154Z,1005.45
2022-11-20T08:08:17.186Z,1005.44
2022-11-20T08:09:19.424Z,1005.39
2022-11-20T08:10:19.135Z,1005.34
2022-11-20T08:11:17.162Z,1005.35
2022-11-20T08:12:17.156Z,1005.31
2022-11-20T08:13:17.173Z,1005.32
2022-11-20T08:14:19.121Z,1005.31
2022-11-20T08:15:18.155Z,1005.31
2022-11-20T08:16:19.128Z,1005.31
2022-11-20T08:17:17.157Z,1005.30
2022-11-20T08:18:34.394Z,1005.30
2022-11-20T08:19:17.146Z,1005.27
2022-11-20T08:20:18.625Z,1005.22
2022-11-20T08:21:18.169Z,1005.23
2022-11-20T08:22:18.644Z,1005.21
2022-11-20T08:23:18.684Z,1005.18
2022-11-20T08:24:18.645Z,1005.16
2022-11-20T08:25:18.625Z,1005.20
2022-11-20T08:26:18.661Z,1005.22
2022-11-20T08:27:18.622Z,1005.24
2022-11-20T08:28:21.656Z,1005.23
2022-11-20T08:29:18.633Z,1005.24
2022-11-20T08:30:18.623Z,1005.27
2022-11-20T08:31:17.121Z,1005.28
2022-11-20T08:32:18.639Z,1005.31
2022-11-20T08:33:18.653Z,1005.31
2022-11-20T08:34:19.341Z,1005.36
2022-11-20T08:35:18.065Z,1005.36
2022-11-20T08:36:17.060Z,1005.36
2022-11-20T08:37:17.049Z,1005.35
2022-11-20T08:38:19.809Z,1005.33
2022-11-20T08:39:18.874Z,1005.34
2022-11-20T08:40:19.687Z,1005.34
2022-11-20T08:41:17.639Z,1005.34
2022-11-20T08:42:17.680Z,1005.34
2022-11-20T08:43:19.394Z,1005.32
2022-11-20T08:44:19.887Z,1005.34
2022-11-20T08:45:19.090Z,1005.33
2022-11-20T08:46:18.924Z,1005.36
2022-11-20T08:47:19.809Z,1005.36
2022-11-20T08:48:18.783Z,1005.29
2022-11-20T08:49:18.155Z,1005.27
2022-11-20T08:50:17.223Z,1005.27
2022-11-20T08:51:18.791Z,1005.26
2022-11-20T08:52:18.717Z,1005.19
2022-11-20T08:53:18.663Z,1005.23
2022-11-20T08:54:19.091Z,1005.21
2022-11-20T08:55:18.968Z,1005.25
2022-11-20T08:56:19.739Z,1005.21
2022-11-20T08:57:20.650Z,1005.21
2022-11-20T08:58:19.086Z,1005.19
2022-11-20T08:59:43.844Z,1005.18
2022-11-20T09:00:21.101Z,1005.15
2022-11-20T09:01:18.201Z,1005.19
2022-11-20T09:02:21.128Z,1005.21
2022-11-20T09:03:18.876Z,1005.27
2022-11-20T09:04:19.892Z,1005.29
2022-11-20T09:05:19.136Z,1005.31
2022-11-20T09:06:19.177Z,1005.38
2022-11-20T09:07:18.849Z,1005.42
2022-11-20T09:08:20.283Z,1005.47
2022-11-20T09:09:19.705Z,1005.53
2022-11-20T09:10:25.799Z,1005.48
2022-11-20T09:11:20.457Z,1005.44
2022-11-20T09:12:17.143Z,1005.40
2022-11-20T09:13:18.976Z,1005.35
2022-11-20T09:14:17.228Z,1005.30
2022-11-20T09:15:17.412Z,1005.27
2022-11-20T09:16:19.042Z,1005.24
2022-11-20T09:17:19.740Z,1005.31
2022-11-20T09:18:18.880Z,1005.29
2022-11-20T09:19:35.931Z,1005.36
2022-11-20T09:20:18.651Z,1005.35
2022-11-20T09:21:19.209Z,1005.37
2022-11-20T09:22:18.952Z,1005.38
2022-11-20T09:23:19.057Z,1005.44
2022-11-20T09:24:18.894Z,1005.46
2022-11-20T09:25:20.032Z,1005.46
2022-11-20T09:26:18.230Z,1005.47
2022-11-20T09:27:16.868Z,1005.45
2022-11-20T09:28:17.946Z,1005.46
2022-11-20T09:29:17.414Z,1005.46
2022-11-20T09:30:18.532Z,1005.44
2022-11-20T09:31:17.100Z,1005.44
2022-11-20T09:32:19.457Z,1005.42
2022-11-20T09:33:17.318Z,1005.43
2022-11-20T09:34:19.225Z,1005.45
2022-11-20T09:35:19.742Z,1005.48
2022-11-20T09:36:16.949Z,1005.51
2022-11-20T09:37:17.252Z,1005.51
2022-11-20T09:38:18.195Z,1005.46
2022-11-20T09:39:16.823Z,1005.45
2022-11-20T09:40:16.813Z,1005.48
2022-11-20T09:41:18.694Z,1005.46
2022-11-20T09:42:16.802Z,1005.45
2022-11-20T09:43:16.806Z,1005.44
2022-11-20T09:44:16.796Z,1005.42
2022-11-20T09:45:16.797Z,1005.42
2022-11-20T09:46:18.696Z,1005.43
2022-11-20T09:47:16.842Z,1005.39
2022-11-20T09:48:18.718Z,1005.34
2022-11-20T09:49:17.794Z,1005.36
2022-11-20T09:50:18.761Z,1005.36
2022-11-20T09:51:17.811Z,1005.34
2022-11-20T09:52:18.701Z,1005.35
2022-11-20T09:53:18.703Z,1005.33
2022-11-20T09:54:18.707Z,1005.32
2022-11-20T09:55:18.695Z,1005.36
2022-11-20T09:56:22.491Z,1005.34
2022-11-20T09:57:18.693Z,1005.34
2022-11-20T09:58:18.720Z,1005.38
2022-11-20T09:59:18.894Z,1005.35
2022-11-20T10:00:18.830Z,1005.38
2022-11-20T10:01:18.852Z,1005.35
2022-11-20T10:02:18.712Z,1005.36
2022-11-20T10:13:23.437Z,1005.24
2022-11-20T10:14:25.162Z,1005.24
2022-11-20T10:15:24.188Z,1005.29
2022-11-20T10:16:23.220Z,1005.27
2022-11-20T10:17:23.059Z,1005.27
2022-11-20T10:18:23.912Z,1005.24
2022-11-20T10:19:26.660Z,1005.26
2022-11-20T10:20:26.405Z,1005.24
2022-11-20T10:21:25.393Z,1005.21
2022-11-20T10:22:23.049Z,1005.17
2022-11-20T10:23:25.926Z,1005.15
2022-11-20T10:24:25.320Z,1005.11
2022-11-20T10:25:24.154Z,1005.06
2022-11-20T10:26:24.477Z,1005.03
2022-11-20T10:27:22.933Z,1005.01
2022-11-20T10:28:24.482Z,1005.00
2022-11-20T10:29:24.749Z,1005.01
2022-11-20T10:30:23.935Z,1004.99
2022-11-20T10:31:24.505Z,1004.97
2022-11-20T10:32:24.466Z,1004.99
2022-11-20T10:33:24.484Z,1004.99
2022-11-20T10:34:24.466Z,1004.96
2022-11-20T10:35:24.484Z,1004.93
2022-11-20T10:36:24.473Z,1004.96
2022-11-20T10:37:24.495Z,1004.97
2022-11-20T10:38:22.935Z,1004.98
2022-11-20T10:39:24.923Z,1004.97
2022-11-20T10:40:23.989Z,1004.95
2022-11-20T10:41:22.883Z,1004.98
2022-11-20T10:42:24.512Z,1004.91
2022-11-20T10:43:23.882Z,1004.91
2022-11-20T10:44:24.487Z,1004.89
2022-11-20T10:45:24.518Z,1004.88
2022-11-20T10:46:24.479Z,1004.83
2022-11-20T10:47:24.481Z,1004.81
2022-11-20T10:48:24.501Z,1004.76
2022-11-20T10:49:24.678Z,1004.72
2022-11-20T10:50:24.546Z,1004.75
2022-11-20T10:51:24.482Z,1004.65
2022-11-20T10:52:24.499Z,1004.68
2022-11-20T10:53:24.481Z,1004.66
2022-11-20T10:54:24.502Z,1004.70
2022-11-20T10:55:24.515Z,1004.67
2022-11-20T10:56:24.485Z,1004.69
2022-11-20T10:57:24.521Z,1004.75
2022-11-20T10:58:22.826Z,1004.77
2022-11-20T10:59:24.798Z,1004.84
2022-11-20T11:00:22.826Z,1004.86
2022-11-20T11:01:24.686Z,1004.84
2022-11-20T11:02:22.831Z,1004.87
2022-11-20T11:03:22.822Z,1004.85
2022-11-20T11:04:24.504Z,1004.81
2022-11-20T11:05:22.817Z,1004.78
2022-11-20T11:06:24.510Z,1004.77
2022-11-20T11:07:22.855Z,1004.74
2022-11-20T11:08:24.508Z,1004.74
2022-11-20T11:09:23.207Z,1004.69
2022-11-20T11:10:24.017Z,1004.66
2022-11-20T11:11:22.792Z,1004.61
2022-11-20T11:12:22.835Z,1004.55
2022-11-20T11:13:24.557Z,1004.56
2022-11-20T11:14:22.771Z,1004.54
2022-11-20T11:15:22.796Z,1004.56
2022-11-20T11:16:22.768Z,1004.57
2022-11-20T11:17:24.505Z,1004.60
2022-11-20T11:18:24.516Z,1004.59
2022-11-20T11:19:24.918Z,1004.60
2022-11-20T11:20:23.812Z,1004.60
2022-11-20T11:21:24.512Z,1004.60
2022-11-20T11:22:24.548Z,1004.63
2022-11-20T11:23:24.528Z,1004.54
2022-11-20T11:24:42.877Z,1004.51
2022-11-20T11:25:24.516Z,1004.49
2022-11-20T11:26:24.520Z,1004.46
2022-11-20T11:27:24.535Z,1004.44
2022-11-20T11:28:24.515Z,1004.42
2022-11-20T11:29:25.119Z,1004.39
2022-11-20T11:30:24.515Z,1004.38
2022-11-20T11:31:24.520Z,1004.38
2022-11-20T11:32:24.539Z,1004.34
2022-11-20T11:33:24.517Z,1004.36
2022-11-20T11:34:24.531Z,1004.35
2022-11-20T11:35:24.524Z,1004.35
2022-11-20T11:36:24.534Z,1004.36
2022-11-20T11:37:24.535Z,1004.38
2022-11-20T11:38:22.717Z,1004.33
2022-11-20T11:39:22.923Z,1004.28
2022-11-20T11:40:24.393Z,1004.24
2022-11-20T11:41:22.691Z,1004.16
2022-11-20T11:42:24.537Z,1004.15
2022-11-20T11:43:24.573Z,1004.13
2022-11-20T11:44:22.695Z,1004.12
2022-11-20T11:45:24.047Z,1004.10
2022-11-20T11:46:22.684Z,1004.08
2022-11-20T11:47:22.684Z,1004.05
2022-11-20T11:48:22.681Z,1004.07
2022-11-20T11:49:23.120Z,1004.04
2022-11-20T11:50:24.552Z,1004.00
2022-11-20T11:51:22.671Z,1004.00
2022-11-20T11:52:22.716Z,1004.00
2022-11-20T11:53:24.537Z,1003.96
2022-11-20T11:54:24.060Z,1003.99
2022-11-20T11:55:24.554Z,1004.03
2022-11-20T11:56:24.052Z,1004.10
2022-11-20T11:57:22.656Z,1004.16
2022-11-20T11:58:24.561Z,1004.22
2022-11-20T11:59:22.965Z,1004.25
2022-11-20T12:00:24.603Z,1004.24
2022-11-20T12:01:22.651Z,1004.25
2022-11-20T12:02:24.588Z,1004.25
2022-11-20T12:03:24.549Z,1004.29
2022-11-20T12:04:22.660Z,1004.27
2022-11-20T12:05:24.566Z,1004.26
2022-11-20T12:06:24.549Z,1004.22
2022-11-20T12:07:45.527Z,1004.21
2022-11-20T12:08:22.665Z,1004.15
2022-11-20T12:09:22.824Z,1004.16
2022-11-20T12:10:22.641Z,1004.13
2022-11-20T12:11:22.633Z,1004.11
2022-11-20T12:12:24.565Z,1004.10
2022-11-20T12:13:22.626Z,1004.16
2022-11-20T12:14:22.637Z,1004.15
2022-11-20T12:15:23.512Z,1004.15
2022-11-20T12:16:22.630Z,1004.15
2022-11-20T12:17:24.572Z,1004.12
2022-11-20T12:18:22.636Z,1004.08
2022-11-20T12:19:23.026Z,1004.03
2022-11-20T12:20:22.628Z,1004.06
2022-11-20T12:21:24.566Z,1004.03
2022-11-20T12:22:24.624Z,1004.00
2022-11-20T12:23:24.584Z,1004.00
2022-11-20T12:24:24.579Z,1003.99
2022-11-20T12:25:24.588Z,1003.96
2022-11-20T12:26:24.583Z,1003.91
2022-11-20T12:27:24.572Z,1003.91
2022-11-20T12:28:24.567Z,1003.88
2022-11-20T12:29:24.973Z,1003.85
2022-11-20T12:30:24.573Z,1003.84
2022-11-20T12:31:24.606Z,1003.79
2022-11-20T12:32:24.613Z,1003.80
2022-11-20T12:33:24.589Z,1003.79
2022-11-20T12:34:24.575Z,1003.77
2022-11-20T12:35:24.602Z,1003.75
2022-11-20T12:36:24.587Z,1003.73
2022-11-20T12:37:24.580Z,1003.71
2022-11-20T12:38:22.633Z,1003.72
2022-11-20T12:39:22.981Z,1003.69
2022-11-20T12:40:24.611Z,1003.72
2022-11-20T12:41:22.637Z,1003.70
2022-11-20T12:42:22.637Z,1003.70
2022-11-20T12:43:24.595Z,1003.73
2022-11-20T12:44:22.642Z,1003.72
2022-11-20T12:45:22.663Z,1003.67
2022-11-20T12:46:24.600Z,1003.68
2022-11-20T12:47:22.650Z,1003.66
2022-11-20T12:48:22.670Z,1003.67
2022-11-20T12:49:22.961Z,1003.65
2022-11-20T12:50:22.692Z,1003.64
2022-11-20T12:51:24.102Z,1003.68
2022-11-20T12:52:24.597Z,1003.65
2022-11-20T12:53:24.608Z,1003.66
2022-11-20T12:54:24.624Z,1003.69
2022-11-20T12:55:24.623Z,1003.65
2022-11-20T12:56:24.604Z,1003.63
2022-11-20T12:57:24.608Z,1003.63
2022-11-20T12:58:24.624Z,1003.62
2022-11-20T12:59:25.248Z,1003.63
2022-11-20T13:00:24.605Z,1003.65
2022-11-20T13:01:24.634Z,1003.65
2022-11-20T13:02:24.603Z,1003.68
2022-11-20T13:03:24.626Z,1003.68
2022-11-20T13:04:24.813Z,1003.72
2022-11-20T13:05:24.608Z,1003.70
2022-11-20T13:06:24.633Z,1003.72
2022-11-20T13:07:24.647Z,1003.67
2022-11-20T13:08:24.615Z,1003.67
2022-11-20T13:09:24.637Z,1003.67
2022-11-20T13:10:24.623Z,1003.63
2022-11-20T13:11:23.670Z,1003.65
2022-11-20T13:12:24.637Z,1003.64
2022-11-20T13:13:22.665Z,1003.61
2022-11-20T13:14:22.973Z,1003.61
2022-11-20T13:15:22.671Z,1003.56
2022-11-20T13:16:22.673Z,1003.57
2022-11-20T13:17:22.697Z,1003.52
2022-11-20T13:18:24.635Z,1003.50
2022-11-20T13:19:24.647Z,1003.47
2022-11-20T13:20:22.670Z,1003.46
2022-11-20T13:21:22.682Z,1003.46
2022-11-20T13:22:22.676Z,1003.45
2022-11-20T13:23:24.645Z,1003.42
2022-11-20T13:24:24.129Z,1003.41
2022-11-20T13:25:22.680Z,1003.40
2022-11-20T13:26:24.632Z,1003.40
2022-11-20T13:27:24.644Z,1003.38
2022-11-20T13:28:22.696Z,1003.36
2022-11-20T13:29:24.634Z,1003.35
2022-11-20T13:30:22.705Z,1003.32
2022-11-20T13:31:24.651Z,1003.32
2022-11-20T13:32:24.653Z,1003.31
2022-11-20T13:33:22.683Z,1003.31
2022-11-20T13:34:22.825Z,1003.29
2022-11-20T13:35:24.657Z,1003.27
2022-11-20T13:36:24.641Z,1003.23
2022-11-20T13:37:24.641Z,1003.27
2022-11-20T13:38:24.669Z,1003.30
2022-11-20T13:39:24.647Z,1003.27
2022-11-20T13:40:24.646Z,1003.26
2022-11-20T13:41:24.650Z,1003.27
2022-11-20T13:42:24.655Z,1003.23
2022-11-20T13:43:24.660Z,1003.18
2022-11-20T13:44:25.041Z,1003.23
2022-11-20T13:45:22.696Z,1003.18
2022-11-20T13:46:24.700Z,1003.18
2022-11-20T13:47:24.649Z,1003.17
2022-11-20T13:48:24.675Z,1003.15
2022-11-20T13:49:23.690Z,1003.08
2022-11-20T13:50:23.714Z,1003.07
2022-11-20T13:51:24.677Z,1003.07
2022-11-20T13:52:24.667Z,1003.02
2022-11-20T13:53:23.694Z,1003.01
2022-11-20T13:54:25.154Z,1003.01
2022-11-20T13:55:23.678Z,1003.01
2022-11-20T13:56:24.664Z,1003.01
2022-11-20T13:57:24.678Z,1003.00
2022-11-20T13:58:24.660Z,1002.95
2022-11-20T13:59:24.680Z,1002.92
2022-11-20T14:00:24.733Z,1002.95
2022-11-20T14:01:24.692Z,1002.92
2022-11-20T14:02:24.664Z,1003.01
2022-11-20T14:03:44.030Z,1002.98
2022-11-20T14:04:23.049Z,1003.01
2022-11-20T14:05:24.677Z,1003.02
2022-11-20T14:06:24.184Z,1003.01
2022-11-20T14:07:24.204Z,1002.98
2022-11-20T14:08:24.170Z,1002.96
2022-11-20T14:09:24.184Z,1002.95
2022-11-20T14:10:25.916Z,1002.96
2022-11-20T14:11:24.200Z,1002.92
2022-11-20T14:12:24.179Z,1002.93
2022-11-20T14:13:24.204Z,1002.93
2022-11-20T14:14:24.479Z,1002.94
2022-11-20T14:15:24.206Z,1002.90
2022-11-20T14:16:24.190Z,1002.89
2022-11-20T14:17:24.191Z,1002.85
2022-11-20T14:18:24.212Z,1002.84
2022-11-20T14:19:22.656Z,1002.79
2022-11-20T14:20:22.659Z,1002.79
2022-11-20T14:21:22.661Z,1002.74
2022-11-20T14:22:23.719Z,1002.73
2022-11-20T14:23:25.643Z,1002.70
2022-11-20T14:24:23.115Z,1002.68
2022-11-20T14:25:24.207Z,1002.64
2022-11-20T14:26:24.186Z,1002.61
2022-11-20T14:27:24.222Z,1002.64
2022-11-20T14:28:24.219Z,1002.57
2022-11-20T14:29:24.219Z,1002.57
2022-11-20T14:30:24.191Z,1002.57
2022-11-20T14:31:24.191Z,1002.58
2022-11-20T14:32:24.192Z,1002.56
2022-11-20T14:33:24.199Z,1002.55
2022-11-20T14:34:24.587Z,1002.56
2022-11-20T14:35:24.202Z,1002.52
2022-11-20T14:36:24.233Z,1002.51
2022-11-20T14:37:24.218Z,1002.48
2022-11-20T14:38:24.198Z,1002.52
2022-11-20T14:39:24.198Z,1002.50
2022-11-20T14:40:24.217Z,1002.54
2022-11-20T14:41:24.218Z,1002.49
2022-11-20T14:42:24.201Z,1002.51
2022-11-20T14:43:24.201Z,1002.53
2022-11-20T14:44:23.868Z,1002.49
2022-11-20T14:45:24.225Z,1002.49
2022-11-20T14:46:24.233Z,1002.48
2022-11-20T14:47:22.583Z,1002.45
2022-11-20T14:48:22.579Z,1002.45
2022-11-20T14:49:22.589Z,1002.46
2022-11-20T14:50:24.726Z,1002.45
2022-11-20T14:51:24.255Z,1002.47
2022-11-20T14:52:22.589Z,1002.45
2022-11-20T14:53:22.581Z,1002.45
2022-11-20T14:54:22.959Z,1002.42
2022-11-20T14:55:22.560Z,1002.44
2022-11-20T14:56:24.228Z,1002.43
2022-11-20T14:57:22.550Z,1002.41
2022-11-20T14:58:24.211Z,1002.39
2022-11-20T14:59:22.544Z,1002.38
2022-11-20T15:00:24.229Z,1002.38
2022-11-20T15:01:23.741Z,1002.35
2022-11-20T15:02:22.538Z,1002.31
2022-11-20T15:03:24.669Z,1002.30
2022-11-20T15:04:24.489Z,1002.26
2022-11-20T15:05:22.530Z,1002.26
2022-11-20T15:06:24.243Z,1002.23
2022-11-20T15:07:24.287Z,1002.19
2022-11-20T15:08:24.236Z,1002.22
2022-11-20T15:09:24.222Z,1002.19
2022-11-20T15:10:24.233Z,1002.18
2022-11-20T15:11:24.225Z,1002.18
2022-11-20T15:12:24.232Z,1002.18
2022-11-20T15:13:24.258Z,1002.15
2022-11-20T15:14:24.675Z,1002.13
2022-11-20T15:15:24.229Z,1002.06
2022-11-20T15:16:24.258Z,1002.04
2022-11-20T15:17:24.227Z,1002.03
2022-11-20T15:18:24.252Z,1002.05
2022-11-20T15:19:24.282Z,1002.02
2022-11-20T15:20:23.482Z,1002.04
2022-11-20T15:21:22.565Z,1002.04
2022-11-20T15:22:24.243Z,1002.03
2022-11-20T15:23:23.465Z,1002.01
2022-11-20T15:24:22.720Z,1002.00
2022-11-20T15:25:22.458Z,1002.00
2022-11-20T15:26:24.271Z,1002.01
2022-11-20T15:27:22.448Z,1002.04
2022-11-20T15:28:24.257Z,1001.99
2022-11-20T15:29:24.241Z,1001.97
2022-11-20T15:30:24.244Z,1001.95
2022-11-20T15:31:24.255Z,1001.92
2022-11-20T15:32:24.277Z,1001.92
2022-11-20T15:33:24.250Z,1001.93
2022-11-20T15:34:24.496Z,1001.93
2022-11-20T15:35:24.247Z,1001.94
2022-11-20T15:36:24.252Z,1001.90
2022-11-20T15:37:29.771Z,1001.90
2022-11-20T15:38:24.274Z,1001.92
2022-11-20T15:39:24.247Z,1001.91
2022-11-20T15:40:24.268Z,1001.95
2022-11-20T15:41:24.287Z,1001.92
2022-11-20T15:42:24.269Z,1001.91
2022-11-20T15:43:22.398Z,1001.89
2022-11-20T15:44:24.740Z,1001.89
2022-11-20T15:45:22.391Z,1001.85
2022-11-20T15:46:22.388Z,1001.84
2022-11-20T15:47:24.268Z,1001.84
2022-11-20T15:48:22.370Z,1001.83
2022-11-20T15:49:24.259Z,1001.86
2022-11-20T15:50:24.316Z,1001.86
2022-11-20T15:51:22.376Z,1001.85
2022-11-20T15:52:22.363Z,1001.85
2022-11-20T15:53:23.771Z,1001.88
2022-11-20T15:54:22.935Z,1001.86
2022-11-20T15:55:22.348Z,1001.88
2022-11-20T15:56:22.343Z,1001.88
2022-11-20T15:57:22.336Z,1001.83
2022-11-20T15:58:22.335Z,1001.86
2022-11-20T15:59:24.281Z,1001.86
2022-11-20T16:00:24.313Z,1001.88
2022-11-20T16:01:24.328Z,1001.86
2022-11-20T16:12:34.992Z,1001.81
2022-11-20T16:13:33.390Z,1001.81
2022-11-20T16:14:35.085Z,1001.74
2022-11-20T16:15:35.005Z,1001.72
2022-11-20T16:16:33.393Z,1001.67
2022-11-20T16:17:34.982Z,1001.66
2022-11-20T16:18:34.997Z,1001.65
2022-11-20T16:19:35.039Z,1001.60
2022-11-20T16:20:34.344Z,1001.59
2022-11-20T16:21:34.506Z,1001.59
2022-11-20T16:22:34.338Z,1001.48
2022-11-20T16:23:33.338Z,1001.47
2022-11-20T16:24:33.331Z,1001.47